createdAt,value
2023-01-15T05:02:06.362Z,35.76
2023-01-15T05:04:34.421Z,36.09
2023-01-15T05:07:02.589Z,35.85
2023-01-15T05:09:29.282Z,36.07
2023-01-15T05:11:56.293Z,35.82
2023-01-15T05:14:23.464Z,35.83
2023-01-15T05:16:50.121Z,35.93
2023-01-15T05:19:16.890Z,36.04
2023-01-15T05:21:43.926Z,35.76
2023-01-15T05:24:15.526Z,35.73
2023-01-15T05:26:42.871Z,35.88
2023-01-15T05:29:10.602Z,35.84
2023-01-15T05:31:37.513Z,35.70
2023-01-15T05:34:04.488Z,36.09
2023-01-15T05:36:32.068Z,36.05
2023-01-15T05:39:01.631Z,35.84
2023-01-15T05:41:47.385Z,35.76
2023-01-15T05:44:14.340Z,35.88
2023-01-15T05:46:41.846Z,36.04
2023-01-15T05:49:11.182Z,35.84
2023-01-15T05:51:38.413Z,35.86
2023-01-15T05:54:06.064Z,35.78
2023-01-15T05:56:35.833Z,35.84
2023-01-15T05:59:03.479Z,36.20
2023-01-15T06:01:30.684Z,35.91
2023-01-15T06:04:01.437Z,36.12
2023-01-15T06:06:28.219Z,35.99
2023-01-15T06:08:55.438Z,36.01
2023-01-15T06:11:22.243Z,35.89
2023-01-15T06:13:49.445Z,35.68
2023-01-15T06:16:16.351Z,35.88
2023-01-15T06:18:43.160Z,35.86
2023-01-15T06:21:10.918Z,36.02
2023-01-15T06:23:38.262Z,35.97
2023-01-15T06:26:06.816Z,35.65
2023-01-15T06:28:33.737Z,35.89
2023-01-15T06:31:05.629Z,36.04
2023-01-15T06:33:32.749Z,35.71
2023-01-15T06:36:02.350Z,36.15
2023-01-15T06:38:30.729Z,35.87
2023-01-15T06:40:59.503Z,35.83
2023-01-15T06:43:44.905Z,35.77
2023-01-15T06:46:30.426Z,35.90
2023-01-15T06:48:57.123Z,35.94
2023-01-15T06:51:24.405Z,35.84
2023-01-15T06:53:51.079Z,35.85
2023-01-15T06:56:18.123Z,35.87
2023-01-15T06:58:45.690Z,35.74
2023-01-15T07:01:15.593Z,35.82
2023-01-15T07:03:42.315Z,35.88
2023-01-15T07:06:10.317Z,35.77
2023-01-15T07:08:37.623Z,35.71
2023-01-15T07:11:09.015Z,35.85
2023-01-15T07:13:37.514Z,35.71
2023-01-15T07:16:04.782Z,35.71
2023-01-15T07:18:33.511Z,35.69
2023-01-15T07:21:03.587Z,35.97
2023-01-15T07:23:30.740Z,35.85
2023-01-15T07:25:57.727Z,35.76
2023-01-15T07:28:25.473Z,35.98
2023-01-15T07:30:52.328Z,35.89
2023-01-15T07:33:19.919Z,35.83
2023-01-15T07:35:46.516Z,35.96
2023-01-15T07:38:13.784Z,35.91
2023-01-15T07:40:40.958Z,35.86
2023-01-15T07:43:28.293Z,36.00
2023-01-15T07:46:13.791Z,35.82
2023-01-15T07:48:59.286Z,35.77
2023-01-15T07:51:26.076Z,36.09
2023-01-15T07:53:53.840Z,35.77
2023-01-15T07:56:20.495Z,36.15
2023-01-15T07:58:50.410Z,35.98
2023-01-15T08:01:17.182Z,36.13
2023-01-15T08:03:44.452Z,36.01
2023-01-15T08:06:11.801Z,36.06
2023-01-15T08:08:38.641Z,35.89
2023-01-15T08:11:24.099Z,35.94
2023-01-15T08:14:10.094Z,36.12
2023-01-15T08:16:37.416Z,35.89
2023-01-15T08:19:04.172Z,36.01
2023-01-15T08:21:31.355Z,35.97
2023-01-15T08:23:58.357Z,36.21
2023-01-15T08:26:25.434Z,36.35
2023-01-15T08:28:52.401Z,36.65
2023-01-15T08:31:19.197Z,36.78
2023-01-15T08:33:46.382Z,36.50
2023-01-15T08:36:13.401Z,36.66
2023-01-15T08:38:40.674Z,36.43
2023-01-15T08:41:07.565Z,36.57
2023-01-15T08:43:34.314Z,36.19
2023-01-15T08:46:02.173Z,35.82
2023-01-15T08:48:29.790Z,36.13
2023-01-15T08:50:56.468Z,36.22
2023-01-15T08:53:24.532Z,36.36
2023-01-15T08:55:51.679Z,33.32
2023-01-15T08:58:19.083Z,33.08
2023-01-15T09:00:46.648Z,33.76
2023-01-15T09:03:13.527Z,34.33
2023-01-15T09:05:40.686Z,34.34
2023-01-15T09:08:08.122Z,34.71
2023-01-15T09:10:35.117Z,34.96
2023-01-15T09:13:02.888Z,34.80
2023-01-15T09:15:30.202Z,34.78
2023-01-15T09:17:57.500Z,35.39
2023-01-15T09:20:24.261Z,35.46
2023-01-15T09:22:51.464Z,35.57
2023-01-15T09:25:19.574Z,35.72
2023-01-15T09:27:47.134Z,35.66
2023-01-15T09:30:18.922Z,35.64
2023-01-15T09:32:45.734Z,35.51
2023-01-15T09:35:12.677Z,35.58
2023-01-15T09:37:40.651Z,35.59
2023-01-15T09:40:20.229Z,35.62
2023-01-15T09:42:55.077Z,35.75
2023-01-15T09:45:25.907Z,35.68
2023-01-15T09:48:01.985Z,35.55
2023-01-15T09:50:31.567Z,35.63
2023-01-15T09:53:38.084Z,35.73
2023-01-15T09:56:04.988Z,35.53
2023-01-15T09:58:37.097Z,31.00
2023-01-15T10:01:04.748Z,31.03
2023-01-15T10:03:57.314Z,30.95
2023-01-15T10:06:34.446Z,31.20
2023-01-15T10:09:21.318Z,31.44
2023-01-15T10:12:10.702Z,31.42
2023-01-15T10:15:03.764Z,31.54
2023-01-15T10:17:53.684Z,31.72
2023-01-15T10:20:26.502Z,32.00
2023-01-15T10:23:03.425Z,31.97
2023-01-15T10:25:34.821Z,32.67
2023-01-15T10:28:06.081Z,32.70
2023-01-15T10:30:43.622Z,32.57
2023-01-15T10:33:30.603Z,32.70
2023-01-15T10:36:15.979Z,33.23
2023-01-15T10:39:01.545Z,33.41
2023-01-15T10:42:01.499Z,33.90
2023-01-15T10:44:50.094Z,34.07
2023-01-15T10:47:19.654Z,34.02
2023-01-15T10:49:53.872Z,34.66
2023-01-15T10:52:32.112Z,34.22
2023-01-15T10:55:19.165Z,34.05
2023-01-15T10:58:13.972Z,34.95
2023-01-15T11:00:51.525Z,35.70
2023-01-15T11:03:21.260Z,35.41
2023-01-15T11:05:48.401Z,34.99
2023-01-15T11:11:18.584Z,34.44
2023-01-15T11:14:14.861Z,34.60
2023-01-15T11:17:00.756Z,34.24
2023-01-15T11:19:40.516Z,34.59
2023-01-15T11:22:15.025Z,35.19
2023-01-15T11:24:51.401Z,35.42
2023-01-15T11:27:28.609Z,35.54
2023-01-15T11:29:58.710Z,35.20
2023-01-15T11:32:33.846Z,34.93
2023-01-15T11:35:02.046Z,34.82
2023-01-15T11:37:29.259Z,34.90
2023-01-15T11:40:06.279Z,34.93
2023-01-15T11:42:52.361Z,34.99
2023-01-15T11:45:38.909Z,34.74
2023-01-15T11:48:40.728Z,34.67
2023-01-15T11:51:15.104Z,34.67
2023-01-15T11:53:46.567Z,34.64
2023-01-15T11:56:18.476Z,34.21
2023-01-15T11:58:56.123Z,34.77
2023-01-15T12:01:43.526Z,34.54
2023-01-15T12:04:45.526Z,34.22
2023-01-15T12:07:13.681Z,34.45
2023-01-15T12:10:02.473Z,34.41
2023-01-15T12:12:40.006Z,34.32
2023-01-15T12:15:14.781Z,34.26
2023-01-15T12:17:50.572Z,34.46
2023-01-15T12:20:51.815Z,34.30
2023-01-15T12:23:28.199Z,34.45
2023-01-15T12:26:07.077Z,34.44
2023-01-15T12:28:39.791Z,34.29
2023-01-15T12:31:23.947Z,34.25
2023-01-15T12:34:07.397Z,34.46
2023-01-15T12:36:38.978Z,34.47
2023-01-15T12:39:41.909Z,34.31
2023-01-15T12:42:29.679Z,34.31
2023-01-15T12:45:04.833Z,34.29
2023-01-15T12:47:49.536Z,34.12
2023-01-15T12:50:46.587Z,34.12
2023-01-15T12:53:27.209Z,34.16
2023-01-15T12:56:27.231Z,33.83
2023-01-15T12:59:21.408Z,33.63
2023-01-15T13:01:54.520Z,33.88
2023-01-15T13:04:30.328Z,33.82
2023-01-15T13:07:01.341Z,33.51
2023-01-15T13:09:38.241Z,33.84
2023-01-15T13:12:14.294Z,33.61
2023-01-15T13:14:43.715Z,33.55
2023-01-15T13:17:21.442Z,33.71
2023-01-15T13:20:12.798Z,33.61
2023-01-15T13:23:41.409Z,27.54
2023-01-15T13:26:46.911Z,28.22
2023-01-15T13:29:32.048Z,28.45
2023-01-15T13:32:12.639Z,28.98
2023-01-15T13:35:04.536Z,28.83
2023-01-15T13:37:36.630Z,28.85
2023-01-15T13:40:25.647Z,29.07
2023-01-15T13:42:56.939Z,29.20
2023-01-15T13:45:37.263Z,29.34
2023-01-15T13:48:15.509Z,29.60
2023-01-15T13:50:52.414Z,29.54
2023-01-15T13:53:28.348Z,29.64
2023-01-15T13:56:32.318Z,29.81
2023-01-15T13:59:02.970Z,30.03
2023-01-15T14:01:40.199Z,30.32
2023-01-15T14:04:13.655Z,30.13
2023-01-15T14:06:43.586Z,30.32
2023-01-15T14:09:12.415Z,30.36
2023-01-15T14:12:07.743Z,30.27
2023-01-15T14:14:46.598Z,30.22
2023-01-15T14:17:50.520Z,30.30
2023-01-15T14:20:47.601Z,30.04
2023-01-15T14:23:33.149Z,30.14
2023-01-15T14:26:18.914Z,30.04
2023-01-15T14:29:07.210Z,29.93
2023-01-15T14:31:51.957Z,30.18
2023-01-15T14:34:29.204Z,30.15
2023-01-15T14:36:59.790Z,30.08
2023-01-15T14:39:41.723Z,29.70
2023-01-15T14:42:41.473Z,29.96
2023-01-15T14:45:11.879Z,29.89
2023-01-15T14:47:52.775Z,29.95
2023-01-15T14:50:31.331Z,29.77
2023-01-15T14:53:21.279Z,29.64
2023-01-15T14:55:49.479Z,30.01
2023-01-15T14:58:38.416Z,29.71
2023-01-15T15:01:17.539Z,29.82
2023-01-15T15:03:58.290Z,29.72
2023-01-15T15:06:27.403Z,29.84
2023-01-15T15:08:58.569Z,29.66
2023-01-15T15:11:47.530Z,29.75
2023-01-15T15:14:14.435Z,29.91
2023-01-15T15:16:52.864Z,29.57
2023-01-15T15:19:53.817Z,29.52
2023-01-15T15:22:21.231Z,29.71
2023-01-15T15:24:49.966Z,29.97
2023-01-15T15:27:18.087Z,29.76
2023-01-15T15:32:33.063Z,29.75
2023-01-15T15:35:00.420Z,29.77
2023-01-15T15:37:28.739Z,29.49
2023-01-15T15:40:09.452Z,29.44
2023-01-15T15:43:01.958Z,29.63
2023-01-15T15:45:48.777Z,29.63
2023-01-15T15:48:52.978Z,29.40
2023-01-15T15:51:42.709Z,29.35
2023-01-15T15:54:23.418Z,29.16
2023-01-15T15:57:15.769Z,29.32
2023-01-15T15:59:50.605Z,29.32
2023-01-15T16:02:36.902Z,29.51
2023-01-15T16:05:29.376Z,29.48
2023-01-15T16:07:56.633Z,29.32
2023-01-15T16:10:31.233Z,29.52
2023-01-15T16:13:04.563Z,26.63
2023-01-15T16:15:34.559Z,25.36
2023-01-15T16:18:02.087Z,25.88
2023-01-15T16:20:28.853Z,25.88
2023-01-15T16:22:58.162Z,25.93
2023-01-15T16:25:33.036Z,26.30
2023-01-15T16:28:00.664Z,26.66
2023-01-15T16:30:28.588Z,27.49
2023-01-15T16:33:03.803Z,27.29
2023-01-15T16:35:34.443Z,27.91
2023-01-15T16:38:01.341Z,28.00
2023-01-15T16:40:31.217Z,27.85
2023-01-15T16:43:09.088Z,28.24
2023-01-15T16:45:36.195Z,28.09
2023-01-15T16:48:10.982Z,28.24
2023-01-15T16:50:40.584Z,28.21
2023-01-15T16:53:35.918Z,28.39
2023-01-15T16:56:05.955Z,28.37
2023-01-15T16:58:40.542Z,28.58
2023-01-15T17:01:34.243Z,28.54
2023-01-15T17:04:02.740Z,28.65
2023-01-15T17:06:29.580Z,28.80
2023-01-15T17:08:56.922Z,28.81
2023-01-15T17:11:30.634Z,28.98
2023-01-15T17:14:22.840Z,28.95
2023-01-15T17:16:49.580Z,29.08
2023-01-15T17:19:18.730Z,29.04
2023-01-15T17:21:47.767Z,29.14
2023-01-15T17:24:15.037Z,29.17
2023-01-15T17:26:42.281Z,29.15
2023-01-15T17:29:09.608Z,29.33
2023-01-15T17:31:36.567Z,29.28
2023-01-15T17:34:03.652Z,29.46
2023-01-15T17:36:30.651Z,29.73
2023-01-15T17:38:57.639Z,29.42
2023-01-15T17:41:27.539Z,29.60
2023-01-15T17:43:54.988Z,29.60
2023-01-15T17:46:22.295Z,29.73
2023-01-15T17:48:49.972Z,29.96
2023-01-15T17:51:16.990Z,30.10
2023-01-15T17:53:45.386Z,30.14
2023-01-15T17:56:32.737Z,29.86
2023-01-15T17:59:20.957Z,30.09
2023-01-15T18:02:09.275Z,30.14
2023-01-15T18:05:00.608Z,30.29
2023-01-15T18:07:33.816Z,30.32
2023-01-15T18:10:02.472Z,30.49
2023-01-15T18:12:29.448Z,30.40
2023-01-15T18:14:56.897Z,30.74
2023-01-15T18:17:25.156Z,30.70
2023-01-15T18:19:55.855Z,30.69
2023-01-15T18:23:01.613Z,30.72
2023-01-15T18:38:08.839Z,31.06
2023-01-15T18:48:28.341Z,31.06
2023-01-15T18:50:55.895Z,30.86
2023-01-15T18:53:26.298Z,31.03
2023-01-15T18:56:01.906Z,31.11
2023-01-15T18:58:30.515Z,31.26
2023-01-15T19:00:57.428Z,31.13
2023-01-15T19:03:24.628Z,31.07
2023-01-15T19:06:06.532Z,31.20
2023-01-15T19:08:43.797Z,31.18
2023-01-15T19:11:14.833Z,31.11
2023-01-15T19:13:42.959Z,30.85
2023-01-15T19:16:29.578Z,31.00
2023-01-15T19:18:59.831Z,31.42
2023-01-15T19:21:27.277Z,31.01
2023-01-15T19:23:58.116Z,31.07
2023-01-15T19:26:28.103Z,30.99
2023-01-15T19:29:52.079Z,30.82
2023-01-15T19:32:25.378Z,31.11
2023-01-15T19:34:53.183Z,31.30
2023-01-15T19:37:24.849Z,31.45
2023-01-15T19:39:57.748Z,31.49
2023-01-15T19:42:43.188Z,31.33
2023-01-15T19:49:08.935Z,31.14
2023-01-15T19:51:54.806Z,31.33
2023-01-15T19:54:42.196Z,31.33
2023-01-15T19:57:08.996Z,31.32
2023-01-15T19:59:45.521Z,31.47
2023-01-15T20:02:13.553Z,31.36
2023-01-15T20:04:40.880Z,31.57
2023-01-15T20:07:11.570Z,31.40
2023-01-15T20:09:46.121Z,31.44
2023-01-15T20:12:31.621Z,31.54
2023-01-15T20:15:03.767Z,31.56
2023-01-15T20:17:30.934Z,31.29
2023-01-15T20:19:58.669Z,31.55
2023-01-15T20:22:27.960Z,31.60
2023-01-15T20:24:55.018Z,31.62
2023-01-15T20:27:22.190Z,31.24
2023-01-15T20:29:56.493Z,31.44
2023-01-15T20:32:23.591Z,31.07
2023-01-15T20:34:51.137Z,31.36
2023-01-15T20:37:18.241Z,31.40
2023-01-15T20:39:45.563Z,31.76
2023-01-15T20:42:30.888Z,31.36
2023-01-15T20:44:57.760Z,31.41
2023-01-15T20:47:46.045Z,31.36
2023-01-15T20:50:16.622Z,31.35
2023-01-15T20:52:47.438Z,31.50
2023-01-15T20:55:18.753Z,31.52
2023-01-15T20:57:51.412Z,31.46
2023-01-15T21:00:20.937Z,31.55
2023-01-15T21:02:48.385Z,29.72
2023-01-15T21:05:15.598Z,28.29
2023-01-15T21:07:43.286Z,27.27
2023-01-15T21:10:11.833Z,26.39
2023-01-15T21:12:38.721Z,27.24
2023-01-15T21:15:09.851Z,26.85
2023-01-15T21:17:39.820Z,27.62
2023-01-15T21:20:10.614Z,27.42
2023-01-15T21:22:37.895Z,28.06
2023-01-15T21:25:06.517Z,27.91
2023-01-15T21:27:35.439Z,28.52
2023-01-15T21:30:02.747Z,28.53
2023-01-15T21:32:30.270Z,28.52
2023-01-15T21:34:59.523Z,28.69
2023-01-15T21:37:26.434Z,28.84
2023-01-15T21:39:54.113Z,29.01
2023-01-15T21:42:40.320Z,29.17
2023-01-15T21:45:08.113Z,29.25
2023-01-15T21:47:36.944Z,29.38
2023-01-15T21:50:05.601Z,29.61
2023-01-15T21:52:34.117Z,29.93
2023-01-15T21:55:01.245Z,29.62
2023-01-15T21:57:31.302Z,29.84
2023-01-15T21:59:58.773Z,30.04
2023-01-15T22:02:29.894Z,30.16
2023-01-15T22:04:56.736Z,30.35
2023-01-15T22:07:23.519Z,30.25
2023-01-15T22:09:50.347Z,30.22
2023-01-15T22:12:29.938Z,30.23
2023-01-15T22:14:57.535Z,30.27
2023-01-15T22:17:24.149Z,30.66
2023-01-15T22:19:51.537Z,30.67
2023-01-15T22:22:30.031Z,30.61
2023-01-15T22:24:56.796Z,30.63
2023-01-15T22:27:23.547Z,30.52
2023-01-15T22:29:50.387Z,30.76
